Time;durP1;ratioP1;P1;durP2;ratioP2;P2;SDS_P1;SDS_P2;PMS_P1;PMS_P2;Temp;Humidity;BMP_temperature;BMP_pressure;BME280_temperature;BME280_humidity;BME280_pressure;Samples;Min_cycle;Max_cycle;Signal;HPM_P1;HPM_P2
2023/06/13 00:01:50;;;;;;;8.82;4.38;;;21.70;46.90;;;21.25;39.95;100398.78;4912115;29;20044;-80
2023/06/13 00:04:23;;;;;;;8.80;4.93;;;21.60;47.50;;;21.21;39.67;100398.53;4920560;29;20505;-80
2023/06/13 00:06:53;;;;;;;6.72;4.53;;;21.60;47.40;;;21.17;40.15;100400.19;4913900;29;20096;-80
2023/06/13 00:09:20;;;;;;;11.55;4.70;;;21.50;47.50;;;21.14;39.53;100397.25;4888397;29;20048;-80
2023/06/13 00:11:49;;;;;;;9.63;5.13;;;21.50;47.40;;;21.09;39.84;100404.31;4923027;29;20063;-81
2023/06/13 00:14:17;;;;;;;8.60;4.95;;;21.40;47.40;;;21.05;40.21;100397.03;4922786;29;20040;-80
2023/06/13 00:16:44;;;;;;;7.88;5.10;;;21.40;47.70;;;21.01;40.57;100402.22;4933124;29;20043;-80
2023/06/13 00:19:12;;;;;;;10.10;5.25;;;21.30;48.20;;;20.98;40.54;100407.38;4916395;29;20103;-80
2023/06/13 00:21:42;;;;;;;8.25;4.88;;;21.30;48.30;;;20.94;40.21;100401.72;4907847;29;20048;-80
2023/06/13 00:24:09;;;;;;;6.63;4.57;;;21.30;48.30;;;20.91;40.85;100402.28;4909189;29;20088;-80
2023/06/13 00:26:36;;;;;;;8.48;4.35;;;21.20;48.70;;;20.85;40.95;100392.56;4910545;29;20140;-81
2023/06/13 00:29:03;;;;;;;7.18;4.60;;;21.20;49.00;;;20.81;41.40;100402.34;4902733;29;20048;-80
2023/06/13 00:31:32;;;;;;;7.15;4.68;;;21.10;49.20;;;20.77;40.92;100401.28;4921044;29;20040;-80
2023/06/13 00:34:01;;;;;;;7.68;4.93;;;21.10;49.00;;;20.74;40.85;100397.25;4924500;29;20132;-80
2023/06/13 00:36:29;;;;;;;8.02;4.82;;;21.10;49.20;;;20.71;40.97;100388.88;4909828;29;20045;-80
2023/06/13 00:38:58;;;;;;;8.23;4.60;;;21.00;49.10;;;20.67;41.13;100391.31;4901554;29;20143;-80
2023/06/13 00:41:25;;;;;;;8.60;4.80;;;21.00;49.20;;;20.63;41.16;100387.53;4901947;29;20131;-81
2023/06/13 00:43:55;;;;;;;7.10;4.63;;;21.00;49.60;;;20.59;41.52;100386.47;4920070;29;20162;-80
2023/06/13 00:46:29;;;;;;;7.77;4.80;;;20.90;49.50;;;20.56;41.42;100384.34;4908257;29;20048;-80
2023/06/13 00:48:58;;;;;;;10.00;5.00;;;20.90;49.80;;;20.50;41.83;100375.44;4918552;29;20055;-80
2023/06/13 00:51:27;;;;;;;8.85;4.97;;;20.90;49.90;;;20.46;41.41;100382.47;4920371;29;20517;-81
2023/06/13 00:53:59;;;;;;;9.20;5.28;;;20.80;49.90;;;20.43;41.76;100374.88;4919395;29;20055;-81
2023/06/13 00:56:28;;;;;;;9.38;5.70;;;20.70;49.90;;;20.41;41.15;100376.28;4911801;29;20053;-81
2023/06/13 00:58:58;;;;;;;9.00;4.83;;;20.70;49.70;;;20.38;41.51;100374.09;4908327;29;20037;-81
2023/06/13 01:01:27;;;;;;;7.20;5.05;;;20.70;49.90;;;20.33;41.91;100378.47;4901136;29;20142;-81
2023/06/13 01:03:55;;;;;;;7.30;4.82;;;20.60;50.20;;;20.29;41.92;100366.56;4907444;29;20388;-81
2023/06/13 01:06:25;;;;;;;7.30;4.82;;;20.60;50.40;;;20.26;42.01;100369.03;4905092;29;20044;-81
2023/06/13 01:08:58;;;;;;;7.88;4.80;;;20.50;50.60;;;20.22;42.23;100367.97;4923929;29;20137;-81
2023/06/13 01:11:38;;;;;;;9.45;5.28;;;20.50;50.70;;;20.19;42.34;100366.59;4911232;29;20717;-81
2023/06/13 01:14:14;;;;;;;7.90;5.47;;;20.50;50.80;;;20.13;42.11;100359.59;4907938;29;20059;-81
2023/06/13 01:16:48;;;;;;;7.13;4.65;;;20.50;50.90;;;20.11;42.58;100363.69;4909942;29;20048;-81
2023/06/13 01:19:31;;;;;;;8.13;4.93;;;20.40;51.10;;;20.06;42.37;100359.91;4909797;29;20067;-81
2023/06/13 01:21:59;;;;;;;7.63;5.00;;;20.40;51.10;;;20.02;42.82;100350.72;4914312;29;20044;-81
2023/06/13 01:24:39;;;;;;;7.55;5.00;;;20.30;51.30;;;19.98;42.64;100356.94;4923731;29;20043;-81
2023/06/13 01:27:12;;;;;;;6.90;4.80;;;20.30;51.30;;;19.94;42.93;100353.97;4882226;29;20048;-81
2023/06/13 01:29:41;;;;;;;9.23;4.93;;;20.30;51.50;;;19.91;42.72;100351.00;4892283;29;20068;-81
2023/06/13 01:32:14;;;;;;;7.15;5.20;;;20.20;51.50;;;19.87;42.75;100350.78;4899739;29;20502;-81
2023/06/13 01:34:41;;;;;;;7.13;4.90;;;20.20;51.70;;;19.85;42.87;100358.34;4896934;29;20051;-81
2023/06/13 01:37:10;;;;;;;7.82;5.00;;;20.20;51.80;;;19.82;42.55;100352.69;4904284;29;20807;-81
2023/06/13 01:39:37;;;;;;;9.70;5.00;;;20.10;51.60;;;19.78;43.15;100353.22;4910290;29;20080;-81
2023/06/13 01:42:07;;;;;;;10.35;5.22;;;20.10;51.90;;;19.76;43.25;100350.00;4903422;29;20044;-81
2023/06/13 01:44:35;;;;;;;9.07;4.80;;;20.10;52.10;;;19.73;43.50;100355.13;4906900;29;20054;-81
2023/06/13 01:47:13;;;;;;;7.78;5.15;;;20.00;52.30;;;19.69;43.54;100356.75;4901377;29;20040;-81
2023/06/13 01:49:49;;;;;;;7.22;5.05;;;20.00;52.50;;;19.64;43.27;100348.66;4899856;29;20054;-81
2023/06/13 01:52:25;;;;;;;10.15;5.40;;;19.90;52.30;;;19.61;43.54;100357.31;4914385;29;20040;-80
2023/06/13 01:54:57;;;;;;;8.38;4.90;;;19.90;52.30;;;19.58;43.13;100355.16;4908288;29;20054;-81
2023/06/13 01:57:36;;;;;;;8.75;4.95;;;19.90;52.20;;;19.55;43.23;100353.78;4911375;29;20494;-81
2023/06/13 02:00:05;;;;;;;10.73;5.55;;;19.80;52.10;;;19.52;43.55;100351.59;4894768;29;20116;-81
2023/06/13 02:02:42;;;;;;;8.95;5.20;;;19.80;52.70;;;19.47;43.47;100352.47;4918398;29;20055;-81
2023/06/13 02:05:11;;;;;;;8.60;5.18;;;19.80;52.70;;;19.46;43.66;100352.72;4912772;29;20051;-81
2023/06/13 02:07:38;;;;;;;9.52;5.45;;;19.70;52.90;;;19.42;43.86;100347.06;4896396;29;20103;-81
2023/06/13 02:10:07;;;;;;;8.40;5.40;;;19.70;53.10;;;19.39;43.93;100347.59;4927330;29;20523;-81
2023/06/13 02:12:38;;;;;;;8.30;5.30;;;19.70;53.20;;;19.35;44.01;100346.50;4910394;29;20062;-81
2023/06/13 02:15:09;;;;;;;7.30;4.97;;;19.60;53.20;;;19.34;44.00;100347.59;4921560;29;20188;-81
2023/06/13 02:17:36;;;;;;;8.75;5.63;;;19.60;53.30;;;19.30;43.99;100352.72;4890961;29;20132;-80
2023/06/13 02:20:06;;;;;;;7.88;5.30;;;19.60;53.20;;;19.27;44.09;100355.16;4902485;29;20036;-80
2023/06/13 02:22:34;;;;;;;9.30;4.65;;;19.60;53.60;;;19.24;44.76;100350.31;4904062;29;20131;-80
2023/06/13 02:25:03;;;;;;;10.65;5.43;;;19.50;53.80;;;19.20;44.22;100349.22;4905692;29;20826;-80
2023/06/13 02:27:30;;;;;;;7.93;5.35;;;19.50;53.80;;;19.17;44.50;100350.56;4910426;29;20523;-80
2023/06/13 02:29:58;;;;;;;7.68;5.03;;;19.40;53.70;;;19.15;44.20;100354.66;4925367;29;20043;-80
2023/06/13 02:32:29;;;;;;;8.27;5.40;;;19.40;53.70;;;19.11;44.56;100354.38;4921485;29;20147;-80
2023/06/13 02:34:56;;;;;;;7.60;5.13;;;19.40;54.00;;;19.09;44.48;100347.63;4918176;29;20523;-80
2023/06/13 02:37:23;;;;;;;8.75;5.35;;;19.30;54.10;;;19.05;44.66;100350.03;4901390;29;20065;-80
2023/06/13 02:39:50;;;;;;;11.18;5.10;;;19.40;54.20;;;19.02;44.70;100345.16;4899884;29;20050;-80
2023/06/13 02:42:17;;;;;;;9.10;5.30;;;19.30;54.20;;;18.99;45.07;100345.72;4910966;29;20044;-80
2023/06/13 02:44:45;;;;;;;9.57;5.35;;;19.30;54.50;;;18.96;45.11;100347.06;4920944;29;20681;-80
2023/06/13 02:47:13;;;;;;;9.15;5.53;;;19.20;54.80;;;18.95;45.15;100344.63;4895031;29;20052;-80
2023/06/13 02:49:41;;;;;;;9.77;5.60;;;19.20;54.70;;;18.92;45.03;100340.56;4915947;29;20059;-80
2023/06/13 02:52:09;;;;;;;12.60;5.57;;;19.10;54.80;;;18.88;45.36;100350.28;4911357;29;20138;-80
2023/06/13 02:54:36;;;;;;;8.57;5.53;;;19.20;54.90;;;18.86;45.09;100346.25;4897106;29;20074;-80
2023/06/13 02:57:04;;;;;;;9.20;5.60;;;19.10;55.10;;;18.83;45.34;100344.88;4890979;29;20076;-80
2023/06/13 02:59:32;;;;;;;9.27;5.65;;;19.10;54.90;;;18.80;45.36;100347.34;4924009;29;20043;-80
2023/06/13 03:01:59;;;;;;;9.00;5.50;;;19.10;55.00;;;18.76;45.34;100350.56;4921398;29;20048;-80
2023/06/13 03:04:28;;;;;;;8.43;4.70;;;19.00;55.20;;;18.72;45.71;100344.06;4904453;29;20603;-80
2023/06/13 03:06:56;;;;;;;7.07;5.20;;;19.00;55.10;;;18.71;45.52;100349.75;4912352;29;20729;-80
2023/06/13 03:11:59;;;;;;;10.57;6.10;;;18.90;55.30;;;18.65;45.61;100350.78;4951780;28;20043;-80
2023/06/13 03:14:26;;;;;;;9.48;5.63;;;19.00;55.40;;;18.62;45.65;100351.31;4942750;28;20044;-79
2023/06/13 03:16:59;;;;;;;9.27;5.50;;;18.90;55.60;;;18.59;45.84;100352.66;4947002;28;20066;-79
2023/06/13 03:19:27;;;;;;;8.60;5.47;;;18.90;55.60;;;18.56;45.79;100353.19;4952531;28;20579;-80
2023/06/13 03:21:55;;;;;;;9.15;5.30;;;18.90;55.70;;;18.53;45.79;100357.22;4945098;28;20043;-78
2023/06/13 03:24:22;;;;;;;11.45;6.35;;;18.80;55.60;;;18.51;45.79;100354.00;4933892;28;20051;-78
2023/06/13 03:26:49;;;;;;;8.55;5.35;;;18.80;55.50;;;18.50;46.04;100360.50;4950364;28;20114;-79
2023/06/13 03:29:17;;;;;;;8.50;5.20;;;18.80;55.70;;;18.49;45.89;100358.03;4935923;28;20106;-78
2023/06/13 03:31:44;;;;;;;10.43;6.15;;;18.80;55.70;;;18.46;46.15;100354.00;4955612;28;20043;-78
2023/06/13 03:34:12;;;;;;;8.40;5.28;;;18.80;56.00;;;18.44;46.23;100345.31;4934233;28;20461;-78
2023/06/13 03:36:43;;;;;;;9.30;5.97;;;18.80;56.10;;;18.42;46.41;100355.59;4952086;28;20047;-80
2023/06/13 03:39:11;;;;;;;8.65;5.47;;;18.80;56.30;;;18.42;46.34;100357.50;4941797;28;20672;-78
2023/06/13 03:41:39;;;;;;;8.60;5.18;;;18.70;56.30;;;18.42;46.54;100347.50;4941848;28;20047;-80
2023/06/13 03:44:06;;;;;;;8.05;5.10;;;18.70;56.40;;;18.41;46.80;100356.69;4933137;29;20051;-78
2023/06/13 03:46:33;;;;;;;8.95;5.50;;;18.70;56.80;;;18.39;46.71;100358.81;4924900;29;20248;-79
2023/06/13 03:49:00;;;;;;;8.52;5.63;;;18.70;56.90;;;18.40;46.83;100363.16;4950245;28;20440;-78
2023/06/13 03:51:28;;;;;;;9.68;5.60;;;18.70;57.10;;;18.39;46.86;100358.00;4957632;28;20051;-78
2023/06/13 03:53:56;;;;;;;9.00;5.57;;;18.70;56.90;;;18.38;47.19;100359.91;4954682;28;20074;-78
2023/06/13 03:56:23;;;;;;;9.27;5.80;;;18.70;57.10;;;18.37;47.25;100362.88;4934774;29;20055;-78
2023/06/13 03:58:51;;;;;;;10.27;5.55;;;18.70;57.10;;;18.38;47.26;100356.38;4929541;29;20050;-79
2023/06/13 04:01:18;;;;;;;10.70;5.53;;;18.70;56.80;;;18.38;47.23;100362.59;4928323;28;20107;-78
2023/06/13 04:03:46;;;;;;;9.60;5.82;;;18.70;56.90;;;18.40;47.13;100365.88;4951135;29;20120;-77
2023/06/13 04:06:13;;;;;;;9.18;5.45;;;18.70;56.90;;;18.40;47.88;100368.56;4932139;29;20078;-78
2023/06/13 04:08:40;;;;;;;9.27;5.28;;;18.70;57.70;;;18.39;47.96;100364.22;4950336;28;20063;-77
2023/06/13 04:11:09;;;;;;;9.95;5.78;;;18.70;57.70;;;18.41;48.13;100362.09;4958294;28;20049;-78
2023/06/13 04:13:36;;;;;;;9.43;5.43;;;18.70;58.10;;;18.40;47.81;100368.56;4930985;29;20134;-77
2023/06/13 04:16:04;;;;;;;9.82;5.90;;;18.70;57.90;;;18.41;47.97;100372.88;4948687;28;20132;-76
2023/06/13 04:18:33;;;;;;;9.38;5.88;;;18.80;57.90;;;18.42;48.41;100362.88;4933280;28;20102;-76
2023/06/13 04:21:00;;;;;;;9.60;6.32;;;18.70;58.30;;;18.41;48.55;100367.47;4957975;28;20129;-76
2023/06/13 04:23:27;;;;;;;10.25;5.65;;;18.70;58.60;;;18.46;48.49;100372.09;4933465;29;20058;-77
2023/06/13 04:25:55;;;;;;;11.02;5.75;;;18.80;58.50;;;18.53;48.64;100361.84;4934613;29;20054;-76
2023/06/13 04:28:24;;;;;;;7.95;5.30;;;18.90;58.40;;;18.60;48.97;100373.22;4951564;28;20043;-79
2023/06/13 04:30:52;;;;;;;9.63;5.90;;;18.90;59.00;;;18.66;48.85;100371.31;4957289;28;20097;-77
2023/06/13 04:33:19;;;;;;;13.15;5.90;;;19.00;59.00;;;18.77;48.22;100379.19;4948197;28;20070;-76
2023/06/13 04:35:48;;;;;;;9.73;5.82;;;19.10;58.40;;;18.89;47.67;100370.84;4950988;28;20047;-78
2023/06/13 04:38:18;;;;;;;8.85;5.60;;;19.30;58.00;;;19.02;48.74;100378.41;4957273;28;20125;-77
2023/06/13 04:40:45;;;;;;;9.02;5.55;;;19.40;58.90;;;19.15;49.07;100376.28;4961311;28;20097;-77
2023/06/13 04:43:14;;;;;;;10.13;6.32;;;19.50;59.30;;;19.27;47.41;100377.59;4947925;28;20461;-77
2023/06/13 04:45:44;;;;;;;11.80;6.03;;;19.70;57.50;;;19.44;46.54;100371.94;4953776;28;20046;-78
2023/06/13 04:48:11;;;;;;;9.32;6.30;;;19.80;57.00;;;19.59;46.94;100370.28;4948372;28;20047;-77
2023/06/13 04:50:40;;;;;;;10.00;6.25;;;19.90;57.20;;;19.75;46.61;100372.69;4949582;28;20135;-78
2023/06/13 04:53:08;;;;;;;14.07;6.30;;;20.10;56.90;;;19.88;45.91;100379.44;4946375;28;20512;-78
2023/06/13 04:55:37;;;;;;;9.50;5.70;;;20.20;55.90;;;20.03;45.18;100387.53;4952206;28;20066;-77
2023/06/13 04:58:05;;;;;;;11.35;6.30;;;20.40;54.90;;;20.21;45.72;100386.09;4954928;28;20050;-79
2023/06/13 05:00:33;;;;;;;14.63;6.15;;;20.50;55.50;;;20.33;45.41;100381.16;4950647;28;20059;-79
2023/06/13 05:03:02;;;;;;;12.02;6.30;;;20.70;55.40;;;20.46;44.50;100390.59;4943433;28;20044;-78
2023/06/13 05:05:29;;;;;;;9.40;5.60;;;20.80;54.20;;;20.57;43.80;100392.19;4952570;28;20047;-77
2023/06/13 05:07:59;;;;;;;10.43;6.07;;;20.90;53.20;;;20.69;44.01;100388.31;4955122;28;20745;-77
2023/06/13 05:10:28;;;;;;;10.00;5.93;;;21.00;53.30;;;20.80;43.40;100389.91;4956630;28;20039;-81
2023/06/13 05:12:57;;;;;;;11.95;6.50;;;21.20;53.20;;;20.91;43.89;100393.34;4948757;28;20054;-77
2023/06/13 05:15:25;;;;;;;10.00;6.07;;;21.30;53.60;;;21.03;43.52;100400.03;4948962;28;20511;-77
2023/06/13 05:17:54;;;;;;;13.68;6.47;;;21.40;52.80;;;21.14;43.94;100389.91;4949198;28;20136;-79
2023/06/13 05:20:26;;;;;;;13.52;6.63;;;21.50;53.30;;;21.23;43.52;100392.84;4952351;28;20062;-80
2023/06/13 05:22:53;;;;;;;9.73;5.70;;;21.60;52.50;;;21.33;42.23;100398.22;4929943;29;20051;-77
2023/06/13 05:25:21;;;;;;;11.95;5.80;;;21.70;51.40;;;21.45;42.59;100405.97;4947834;28;20050;-78
2023/06/13 05:27:51;;;;;;;9.00;6.15;;;21.80;51.40;;;21.56;42.21;100407.47;4956043;28;20047;-78
2023/06/13 05:30:19;;;;;;;13.57;5.97;;;22.00;51.20;;;21.65;42.16;100407.69;4958288;28;20118;-74
2023/06/13 05:32:46;;;;;;;15.63;6.30;;;22.10;51.00;;;21.72;41.25;100410.88;4940150;28;20040;-78
2023/06/13 05:35:13;;;;;;;13.43;6.40;;;22.10;50.30;;;21.82;42.05;100410.78;4949650;28;20293;-74
2023/06/13 05:37:43;;;;;;;13.82;6.38;;;22.20;51.30;;;21.90;40.68;100420.97;4959471;28;20053;-75
2023/06/13 05:40:11;;;;;;;8.98;5.43;;;22.30;49.10;;;21.94;40.35;100411.16;4955570;28;20040;-74
2023/06/13 05:42:39;;;;;;;10.70;5.88;;;22.40;48.80;;;22.04;40.74;100419.19;4947483;28;20046;-73
2023/06/13 05:45:10;;;;;;;16.92;6.53;;;22.50;49.00;;;22.14;39.77;100420.22;4950736;28;20043;-76
2023/06/13 05:47:37;;;;;;;9.63;5.72;;;22.60;48.20;;;22.22;40.52;100422.31;4944430;28;20126;-73
2023/06/13 05:50:11;;;;;;;10.23;5.82;;;22.70;48.50;;;22.30;40.04;100418.94;4943871;28;20040;-74
2023/06/13 05:52:38;;;;;;;9.10;5.50;;;22.80;48.20;;;22.39;39.75;100425.34;4949518;28;20051;-74
2023/06/13 05:55:08;;;;;;;10.60;5.95;;;22.90;48.00;;;22.44;39.22;100410.88;4947733;29;20468;-73
2023/06/13 05:57:40;;;;;;;14.93;5.43;;;22.90;47.30;;;22.54;39.97;100421.63;4927292;29;20154;-75
2023/06/13 06:00:13;;;;;;;9.27;5.65;;;23.00;47.90;;;22.63;39.10;100415.25;4955536;28;20042;-74
2023/06/13 06:02:41;;;;;;;10.07;6.00;;;23.10;47.20;;;22.73;39.11;100417.00;4948553;28;20039;-75
2023/06/13 06:05:11;;;;;;;8.18;5.80;;;23.20;46.80;;;22.82;39.02;100417.16;4951302;28;20528;-74
2023/06/13 06:07:38;;;;;;;10.30;6.63;;;23.30;46.90;;;22.90;38.19;100423.91;4949912;28;20050;-74
2023/06/13 06:10:10;;;;;;;8.35;5.32;;;23.40;45.80;;;22.97;38.20;100427.84;4949604;28;20038;-74
2023/06/13 06:12:38;;;;;;;11.43;5.63;;;23.40;45.80;;;23.02;38.03;100432.41;4949070;28;20827;-73
2023/06/13 06:15:07;;;;;;;11.57;5.90;;;23.50;45.90;;;23.10;38.35;100427.09;4952005;28;20043;-75
2023/06/13 06:17:34;;;;;;;11.13;5.80;;;23.60;45.50;;;23.15;38.34;100426.22;4944911;28;20047;-74
2023/06/13 06:20:02;;;;;;;8.73;5.18;;;23.60;46.10;;;23.25;38.21;100425.25;4948364;28;20550;-75
2023/06/13 06:22:31;;;;;;;11.63;5.70;;;23.70;45.80;;;23.31;37.60;100419.41;4949295;28;20039;-75
2023/06/13 06:25:01;;;;;;;10.77;5.60;;;23.80;45.00;;;23.36;38.13;100426.69;4951584;28;20127;-73
2023/06/13 06:27:29;;;;;;;8.63;5.65;;;23.80;45.40;;;23.44;39.21;100420.56;4951023;28;20053;-74
2023/06/13 06:29:57;;;;;;;9.30;5.90;;;23.90;46.60;;;23.52;38.75;100427.22;4944412;28;21469;-75
2023/06/13 06:32:24;;;;;;;11.88;5.68;;;24.00;46.10;;;23.55;38.55;100427.47;4948255;28;20130;-73
2023/06/13 06:34:53;;;;;;;10.82;5.53;;;24.10;46.00;;;23.63;38.03;100428.69;4952682;28;20101;-75
2023/06/13 06:37:21;;;;;;;10.20;5.65;;;24.10;45.20;;;23.71;38.19;100430.75;4955774;28;20496;-74
2023/06/13 06:39:48;;;;;;;11.15;5.30;;;24.20;45.20;;;23.77;37.93;100428.75;4953862;28;20114;-75
2023/06/13 06:42:15;;;;;;;11.50;5.43;;;24.20;45.00;;;23.84;38.07;100437.31;4956876;28;20051;-74
2023/06/13 06:44:58;;;;;;;9.63;5.95;;;24.30;45.30;;;23.93;37.30;100432.81;4943902;28;20054;-75
2023/06/13 06:47:25;;;;;;;12.38;5.90;;;24.40;44.20;;;24.00;37.00;100435.94;4952837;28;20086;-75
2023/06/13 06:49:53;;;;;;;10.80;5.20;;;24.50;43.90;;;24.07;37.99;100433.63;4935573;28;20044;-74
2023/06/13 06:52:20;;;;;;;12.75;5.57;;;24.50;45.40;;;24.14;37.45;100431.28;4949699;28;20050;-74
2023/06/13 06:54:47;;;;;;;12.00;5.45;;;24.70;44.70;;;24.21;36.85;100435.56;4951680;28;20505;-74
2023/06/13 06:57:17;;;;;;;11.48;5.43;;;24.70;43.50;;;24.30;38.50;100433.72;4951443;28;20038;-75
2023/06/13 06:59:44;;;;;;;15.35;5.50;;;24.80;45.60;;;24.35;36.95;100430.88;4950719;28;20067;-74
2023/06/13 07:02:13;;;;;;;10.05;5.15;;;24.80;43.80;;;24.41;36.68;100426.97;4956001;28;20090;-74
2023/06/13 07:04:40;;;;;;;8.63;5.40;;;24.90;43.40;;;24.47;36.54;100428.47;4949057;28;20130;-73
2023/06/13 07:07:07;;;;;;;8.77;5.35;;;25.00;43.10;;;24.56;36.43;100429.38;4958660;28;20035;-73
2023/06/13 07:09:34;;;;;;;10.35;5.43;;;25.00;43.20;;;24.61;35.76;100432.00;4959251;28;20042;-72
2023/06/13 07:12:02;;;;;;;10.43;5.45;;;25.10;42.30;;;24.69;36.93;100424.19;4957920;28;20127;-75
2023/06/13 07:14:29;;;;;;;9.60;5.05;;;25.20;43.70;;;24.75;35.68;100428.44;4948400;28;20138;-73
2023/06/13 07:16:56;;;;;;;10.23;4.60;;;25.30;41.80;;;24.82;37.06;100417.91;4952280;28;20145;-74
2023/06/13 07:19:25;;;;;;;21.55;5.15;;;25.30;43.60;;;24.89;36.17;100423.75;4951440;28;20407;-81
2023/06/13 07:21:52;;;;;;;12.02;4.90;;;25.40;42.40;;;24.96;34.88;100420.59;4950761;28;20049;-80
2023/06/13 07:24:19;;;;;;;7.90;4.45;;;25.50;40.40;;;25.02;33.87;100428.34;4950928;28;20047;-81
2023/06/13 07:26:46;;;;;;;8.27;4.70;;;25.60;39.30;;;25.10;33.93;100429.56;4956932;28;20070;-78
2023/06/13 07:29:14;;;;;;;8.60;4.70;;;25.60;39.30;;;25.15;34.28;100426.72;4941324;29;20130;-79
2023/06/13 07:31:42;;;;;;;8.32;4.32;;;25.70;39.80;;;25.22;34.92;100438.00;4953057;28;20102;-77
2023/06/13 07:34:09;;;;;;;13.23;4.80;;;25.80;40.40;;;25.26;33.94;100430.00;4954049;28;20454;-79
2023/06/13 07:36:41;;;;;;;9.80;4.40;;;25.80;39.00;;;25.31;34.97;100432.59;4958783;28;20047;-77
2023/06/13 07:39:12;;;;;;;6.53;4.25;;;25.90;40.20;;;25.39;33.89;100434.59;4937759;29;20087;-79
2023/06/13 07:41:48;;;;;;;8.93;4.75;;;26.00;39.50;;;25.47;33.67;100438.47;4957567;28;20071;-79
2023/06/13 07:44:15;;;;;;;8.63;4.68;;;26.00;38.90;;;25.51;32.78;100437.53;4960262;28;20074;-79
2023/06/13 07:46:43;;;;;;;10.98;4.60;;;26.00;37.80;;;25.54;32.83;100427.94;4951564;28;20067;-78
2023/06/13 07:49:12;;;;;;;9.13;4.47;;;26.10;37.80;;;25.58;32.69;100437.94;4951970;28;20035;-78
2023/06/13 07:51:42;;;;;;;9.43;4.70;;;26.10;37.30;;;25.61;32.65;100423.63;4950850;28;20047;-79
2023/06/13 07:54:09;;;;;;;11.63;4.77;;;26.20;37.40;;;25.67;32.09;100432.53;4956916;28;20098;-81
2023/06/13 07:56:36;;;;;;;6.57;4.40;;;26.20;36.60;;;25.70;33.33;100429.16;4951213;28;20043;-80
2023/06/13 07:59:03;;;;;;;9.60;4.93;;;26.30;38.40;;;25.71;33.36;100427.22;4951157;28;20416;-78
2023/06/13 08:01:33;;;;;;;10.50;4.80;;;26.30;38.20;;;25.75;32.21;100430.94;4950950;28;20551;-80
2023/06/13 08:04:05;;;;;;;7.50;4.60;;;26.30;36.70;;;25.77;31.63;100420.53;4956613;28;20059;-80
2023/06/13 08:06:32;;;;;;;7.47;4.20;;;26.40;35.60;;;25.79;31.25;100430.03;4967761;28;20094;-80
2023/06/13 08:09:03;;;;;;;11.98;4.70;;;26.40;35.70;;;25.81;32.19;100426.97;4970577;28;20051;-79
2023/06/13 08:11:38;;;;;;;8.68;4.93;;;26.40;36.70;;;25.84;32.29;100418.16;4955596;28;20062;-80
2023/06/13 08:14:12;;;;;;;7.65;4.70;;;26.50;36.20;;;25.87;31.20;100417.53;4940586;28;20055;-81
2023/06/13 08:16:47;;;;;;;8.07;4.70;;;26.50;35.10;;;25.84;30.92;100407.22;4942142;29;20051;-80
2023/06/13 08:19:15;;;;;;;9.27;4.65;;;26.40;34.90;;;25.89;31.37;100412.56;4949571;29;20707;-82
2023/06/13 08:21:48;;;;;;;8.38;4.25;;;26.50;35.80;;;25.91;32.32;100413.03;4950798;28;20062;-79
2023/06/13 08:27:04;;;;;;;8.82;4.28;;;26.50;35.30;;;25.99;30.52;100411.47;4948549;28;20500;-80
2023/06/13 08:29:36;;;;;;;9.35;4.50;;;26.50;34.60;;;26.04;30.46;100420.31;4949775;28;20126;-80
2023/06/13 08:32:07;;;;;;;13.57;4.75;;;26.60;34.20;;;26.05;30.65;100427.41;4957870;28;20744;-79
2023/06/13 08:34:35;;;;;;;6.95;4.10;;;26.60;34.60;;;26.06;31.17;100429.03;4934314;28;20524;-79
2023/06/13 08:37:02;;;;;;;8.38;4.35;;;26.60;34.90;;;26.08;30.98;100418.56;4950062;28;20045;-80
2023/06/13 08:39:31;;;;;;;10.40;4.70;;;26.60;34.70;;;26.09;30.86;100414.72;4939834;29;20051;-80
2023/06/13 08:41:59;;;;;;;8.65;4.40;;;26.70;34.50;;;26.11;30.23;100419.88;4949013;28;20090;-80
2023/06/13 08:44:27;;;;;;;8.73;4.50;;;26.70;33.60;;;26.15;30.41;100420.84;4950215;28;20142;-79
2023/06/13 08:46:58;;;;;;;7.60;4.35;;;26.70;33.80;;;26.15;30.54;100407.97;4949458;28;20047;-79
2023/06/13 08:49:25;;;;;;;10.23;4.22;;;26.80;33.80;;;26.17;29.80;100413.94;4959486;28;20102;-81
2023/06/13 08:51:54;;;;;;;10.13;4.90;;;26.70;32.80;;;26.19;29.73;100402.69;4949799;28;20101;-79
2023/06/13 08:54:22;;;;;;;9.60;4.20;;;26.80;32.70;;;26.16;30.27;100401.41;4947941;28;20405;-80
2023/06/13 08:56:52;;;;;;;9.43;4.18;;;26.80;33.50;;;26.21;30.24;100394.97;4949088;28;20398;-81
2023/06/13 08:59:26;;;;;;;8.38;4.40;;;26.80;33.20;;;26.25;30.45;100390.47;4955184;28;20138;-80
2023/06/13 09:01:55;;;;;;;11.50;4.82;;;26.80;34.00;;;26.27;29.96;100390.16;4954778;28;20047;-80
2023/06/13 09:04:27;;;;;;;8.02;4.40;;;26.80;32.70;;;26.27;29.59;100390.16;4954127;28;20141;-80
2023/06/13 09:06:56;;;;;;;12.75;4.20;;;26.90;32.70;;;26.29;30.23;100385.97;4949584;28;20047;-80
2023/06/13 09:09:25;;;;;;;7.07;4.28;;;26.90;33.10;;;26.33;29.89;100391.63;4945090;28;20153;-78
2023/06/13 09:11:55;;;;;;;11.57;4.45;;;26.90;32.80;;;26.33;29.72;100389.69;4954049;28;20045;-79
2023/06/13 09:14:23;;;;;;;8.27;4.70;;;26.90;32.90;;;26.32;30.34;100390.81;4957529;28;20039;-79
2023/06/13 09:16:54;;;;;;;7.45;4.35;;;26.90;33.10;;;26.31;29.26;100382.94;4949096;28;20130;-79
2023/06/13 09:19:21;;;;;;;7.32;4.50;;;26.90;32.20;;;26.30;27.80;100389.50;4948555;28;20047;-79
2023/06/13 09:21:48;;;;;;;9.63;4.22;;;26.90;30.20;;;26.29;27.37;100375.03;4948711;28;20842;-80
2023/06/13 09:24:17;;;;;;;7.80;4.30;;;26.90;29.80;;;26.28;28.05;100383.56;4954805;28;20378;-80
2023/06/13 09:26:45;;;;;;;6.90;4.65;;;26.90;30.40;;;26.22;27.44;100382.91;4952623;28;20086;-80
2023/06/13 09:29:13;;;;;;;7.00;4.20;;;26.80;29.70;;;26.15;28.66;100377.91;4951608;28;20716;-78
2023/06/13 09:31:46;;;;;;;11.73;4.22;;;26.80;31.20;;;26.10;27.80;100380.78;4957337;28;20079;-78
2023/06/13 09:34:20;;;;;;;7.18;4.43;;;26.70;29.90;;;26.06;28.06;100373.53;4947037;28;20071;-78
2023/06/13 09:37:06;;;;;;;8.23;4.30;;;26.70;30.50;;;26.05;28.57;100377.41;4932730;28;20051;-80
2023/06/13 09:39:33;;;;;;;6.45;3.83;;;26.60;30.80;;;26.04;28.84;100364.84;4957412;28;20067;-79
2023/06/13 09:42:02;;;;;;;8.68;4.30;;;26.60;31.30;;;26.06;28.40;100368.91;4961342;28;20042;-82
2023/06/13 09:44:33;;;;;;;7.00;4.38;;;26.60;30.80;;;26.01;27.54;100371.78;4961249;23;20102;-79
2023/06/13 09:47:01;;;;;;;;;;;26.60;29.70;;;25.98;28.91;100364.19;4949348;28;20475;-79
2023/06/13 09:49:32;;;;;;;7.32;4.20;;;26.50;31.20;;;26.00;29.22;100363.88;4958681;28;19937;-79
2023/06/13 09:52:01;;;;;;;7.80;4.03;;;26.60;31.70;;;26.03;30.06;100366.78;4961468;28;20051;-79
2023/06/13 09:54:31;;;;;;;8.70;4.47;;;26.60;33.60;;;26.06;28.95;100351.66;4951945;28;20047;-78
2023/06/13 09:56:58;;;;;;;8.33;4.57;;;26.60;31.40;;;26.07;28.58;100359.56;4946865;28;20086;-78
2023/06/13 09:59:26;;;;;;;10.00;4.78;;;26.60;30.90;;;26.06;27.94;100359.88;4951627;28;20047;-78
2023/06/13 10:01:55;;;;;;;6.43;4.18;;;26.60;30.40;;;26.03;28.17;100355.84;4946930;28;20125;-78
2023/06/13 10:04:23;;;;;;;6.45;4.38;;;26.60;30.20;;;26.04;28.90;100359.38;4953981;28;20053;-79
2023/06/13 10:06:51;;;;;;;7.75;4.22;;;26.60;31.50;;;26.03;27.59;100360.50;4950113;28;20424;-78
2023/06/13 10:09:18;;;;;;;6.55;4.40;;;26.60;29.80;;;25.97;27.53;100357.13;4950027;28;20079;-78
2023/06/13 10:11:54;;;;;;;7.85;4.43;;;26.50;29.40;;;25.93;28.12;100358.88;4956571;28;20046;-79
2023/06/13 10:14:24;;;;;;;11.55;4.28;;;26.50;30.50;;;25.89;27.39;100352.44;4956491;28;20157;-79
2023/06/13 10:17:01;;;;;;;8.27;4.88;;;26.50;29.70;;;25.85;27.67;100348.72;4950615;28;20058;-79
2023/06/13 10:19:30;;;;;;;7.07;4.38;;;26.40;29.80;;;25.83;27.56;100349.03;4952741;28;20126;-79
2023/06/13 10:21:58;;;;;;;8.48;4.40;;;26.40;30.20;;;25.82;27.67;100347.44;4952994;28;20049;-78
2023/06/13 10:24:27;;;;;;;6.75;4.43;;;26.40;30.00;;;25.81;27.89;100339.53;4957363;28;20078;-79